createdAt,value
2023-03-17T03:20:36.563Z,4.70
2023-03-17T03:23:06.468Z,2.00
2023-03-17T03:25:35.849Z,1.90
2023-03-17T03:28:02.506Z,1.80
2023-03-17T03:30:32.000Z,1.70
2023-03-17T03:33:02.346Z,1.50
2023-03-17T03:35:29.661Z,1.50
2023-03-17T03:37:57.018Z,1.50
2023-03-17T03:40:25.193Z,1.50
2023-03-17T03:42:52.424Z,1.50
2023-03-17T03:45:19.326Z,1.50
2023-03-17T03:47:46.057Z,1.50
2023-03-17T03:50:13.538Z,1.40
2023-03-17T03:52:40.871Z,1.40
2023-03-17T03:55:08.873Z,1.30
2023-03-17T03:57:35.935Z,1.30
2023-03-17T04:00:03.364Z,1.20
2023-03-17T04:02:30.890Z,1.10
2023-03-17T04:04:57.806Z,1.20
2023-03-17T04:07:24.807Z,1.20
2023-03-17T04:09:51.566Z,1.10
2023-03-17T04:12:18.940Z,0.90
2023-03-17T04:14:45.666Z,0.90
2023-03-17T04:17:13.045Z,1.00
2023-03-17T04:19:39.804Z,1.10
2023-03-17T04:22:08.982Z,1.10
2023-03-17T04:24:35.933Z,1.00
2023-03-17T04:27:05.876Z,0.80
2023-03-17T04:29:32.851Z,0.70
2023-03-17T04:31:59.723Z,0.70
2023-03-17T04:34:27.276Z,0.70
2023-03-17T04:36:54.240Z,0.70
2023-03-17T04:39:20.944Z,0.80
2023-03-17T04:41:47.617Z,0.90
2023-03-17T04:44:14.306Z,1.00
2023-03-17T04:46:40.998Z,1.00
2023-03-17T04:49:08.452Z,1.10
2023-03-17T04:51:37.202Z,1.00
2023-03-17T04:54:04.713Z,1.00
2023-03-17T04:56:32.101Z,1.10
2023-03-17T04:58:59.034Z,1.10
2023-03-17T05:01:26.453Z,1.10
2023-03-17T05:03:53.362Z,1.10
2023-03-17T05:06:20.310Z,1.10
2023-03-17T05:08:49.308Z,1.00
2023-03-17T05:11:19.280Z,0.90
2023-03-17T05:13:45.967Z,0.80
2023-03-17T05:16:15.304Z,0.90
2023-03-17T05:18:46.145Z,0.70
2023-03-17T05:21:12.966Z,0.60
2023-03-17T05:23:40.349Z,0.50
2023-03-17T05:26:07.208Z,0.40
2023-03-17T05:28:34.408Z,0.20
2023-03-17T05:31:04.352Z,0.00
2023-03-17T05:33:31.169Z,-0.20
2023-03-17T05:35:57.917Z,-0.40
2023-03-17T05:38:25.027Z,-0.60
2023-03-17T05:40:54.709Z,-0.70
2023-03-17T05:43:21.811Z,-0.70
2023-03-17T05:45:50.742Z,-0.80
2023-03-17T05:48:17.647Z,-0.80
2023-03-17T05:50:44.395Z,-0.60
2023-03-17T05:53:11.110Z,-0.50
2023-03-17T05:55:37.878Z,-0.40
2023-03-17T05:58:06.413Z,-0.30
2023-03-17T06:00:33.424Z,-0.30
2023-03-17T06:03:00.172Z,-0.40
2023-03-17T06:05:27.128Z,-0.40
2023-03-17T06:07:56.374Z,-0.30
2023-03-17T06:10:24.422Z,-0.20
2023-03-17T06:12:52.042Z,-0.10
2023-03-17T06:15:19.468Z,0.10
2023-03-17T06:17:46.658Z,0.30
2023-03-17T06:20:16.737Z,0.50
2023-03-17T06:23:00.406Z,0.80
2023-03-17T06:25:30.202Z,0.90
2023-03-17T06:27:57.705Z,1.10
2023-03-17T06:30:27.596Z,1.30
2023-03-17T06:32:54.939Z,1.50
2023-03-17T06:35:22.846Z,2.00
2023-03-17T06:37:49.754Z,2.70
2023-03-17T06:40:19.569Z,3.50
2023-03-17T06:47:44.154Z,4.50
2023-03-17T06:50:12.295Z,6.60
2023-03-17T06:52:40.085Z,7.20
2023-03-17T06:55:08.474Z,7.80
2023-03-17T06:57:35.234Z,8.00
2023-03-17T07:00:02.061Z,8.30
2023-03-17T07:02:37.700Z,8.60
2023-03-17T07:05:04.724Z,9.00
2023-03-17T07:07:31.636Z,9.30
2023-03-17T07:09:58.651Z,9.60
2023-03-17T07:12:25.977Z,10.00
2023-03-17T07:14:52.912Z,10.10
2023-03-17T07:17:19.708Z,10.10
2023-03-17T07:22:13.877Z,10.20
2023-03-17T07:24:42.998Z,10.30
2023-03-17T07:27:14.450Z,10.30
2023-03-17T07:29:41.515Z,10.30
2023-03-17T07:32:09.515Z,10.20
2023-03-17T07:34:36.499Z,10.40
2023-03-17T07:37:07.087Z,10.00
2023-03-17T07:39:37.018Z,10.30
2023-03-17T07:42:03.852Z,10.50
2023-03-17T07:44:33.535Z,10.70
2023-03-17T07:47:00.315Z,11.00
2023-03-17T07:49:40.830Z,11.30
2023-03-17T07:52:10.333Z,11.50
2023-03-17T07:54:37.603Z,10.80
2023-03-17T07:57:05.446Z,10.80
2023-03-17T07:59:32.302Z,10.40
2023-03-17T08:02:01.232Z,10.50
2023-03-17T08:04:30.969Z,11.00
2023-03-17T08:06:57.864Z,11.60
2023-03-17T08:09:24.858Z,12.10
2023-03-17T08:11:51.645Z,12.50
2023-03-17T08:14:18.338Z,12.80
2023-03-17T08:16:45.169Z,12.80
2023-03-17T08:19:12.006Z,12.90
2023-03-17T08:21:39.156Z,12.60
2023-03-17T08:24:06.568Z,12.70
2023-03-17T08:26:33.437Z,12.50
2023-03-17T08:29:01.106Z,11.80
2023-03-17T08:31:27.898Z,11.60
2023-03-17T08:33:57.179Z,11.40
2023-03-17T08:36:26.811Z,11.40
2023-03-17T08:38:53.535Z,11.40
2023-03-17T08:41:23.645Z,11.50
2023-03-17T08:43:51.665Z,11.80
2023-03-17T08:46:20.023Z,12.20
2023-03-17T08:48:48.286Z,12.40
2023-03-17T08:51:18.418Z,12.50
2023-03-17T08:53:46.724Z,13.10
2023-03-17T08:56:14.274Z,13.80
2023-03-17T08:58:44.619Z,14.40
2023-03-17T09:01:14.702Z,14.80
2023-03-17T09:03:42.213Z,15.10
2023-03-17T09:06:13.958Z,15.40
2023-03-17T09:08:56.695Z,15.50
2023-03-17T09:11:28.884Z,15.30
2023-03-17T09:14:03.638Z,15.20
2023-03-17T09:16:33.976Z,14.50
2023-03-17T09:19:00.861Z,14.50
2023-03-17T09:21:27.908Z,14.50
2023-03-17T09:23:55.132Z,14.40
2023-03-17T09:26:25.907Z,14.40
2023-03-17T09:28:52.818Z,14.40
2023-03-17T09:31:19.558Z,14.00
2023-03-17T09:33:47.303Z,13.80
2023-03-17T09:36:14.136Z,13.10
2023-03-17T09:38:40.965Z,13.60
2023-03-17T09:41:47.710Z,13.60
2023-03-17T09:44:37.951Z,13.60
2023-03-17T09:47:28.261Z,13.50
2023-03-17T09:50:01.227Z,13.80
2023-03-17T09:52:34.520Z,13.80
2023-03-17T09:55:03.647Z,14.10
2023-03-17T09:57:36.340Z,14.20
2023-03-17T10:00:11.952Z,14.50
2023-03-17T10:02:38.684Z,14.80
2023-03-17T10:05:27.436Z,14.70
2023-03-17T10:10:46.880Z,14.70
2023-03-17T10:26:43.693Z,15.30
2023-03-17T10:29:25.307Z,14.70
2023-03-17T10:31:56.276Z,14.80
2023-03-17T10:34:30.722Z,15.10
2023-03-17T10:39:46.971Z,15.30
2023-03-17T10:42:35.284Z,15.80
2023-03-17T10:45:27.780Z,15.90
2023-03-17T10:47:58.975Z,16.10
2023-03-17T10:50:32.540Z,16.10
2023-03-17T10:53:08.363Z,16.30
2023-03-17T10:55:40.160Z,16.60
2023-03-17T10:58:15.808Z,16.60
2023-03-17T11:01:03.693Z,16.50
2023-03-17T11:03:35.852Z,17.30
2023-03-17T11:06:19.314Z,17.50
2023-03-17T11:08:54.744Z,18.30
2023-03-17T11:11:28.675Z,18.60
2023-03-17T11:14:05.982Z,18.90
2023-03-17T11:16:36.405Z,19.10
2023-03-17T11:19:05.738Z,19.40
2023-03-17T11:22:30.599Z,19.20
2023-03-17T11:25:11.545Z,19.00
2023-03-17T11:27:47.257Z,18.50
2023-03-17T11:30:42.818Z,18.60
2023-03-17T11:33:34.583Z,18.70
2023-03-17T11:36:24.877Z,18.00
2023-03-17T11:39:10.228Z,18.60
2023-03-17T11:42:17.192Z,18.70
2023-03-17T11:45:17.034Z,18.90
2023-03-17T11:48:04.655Z,19.30
2023-03-17T11:50:39.494Z,18.90
2023-03-17T11:53:20.969Z,19.00
2023-03-17T11:55:58.369Z,19.20
2023-03-17T11:58:42.092Z,19.60
2023-03-17T12:01:14.064Z,19.80
2023-03-17T12:04:05.186Z,19.70
2023-03-17T12:06:42.451Z,19.70
2023-03-17T12:09:11.966Z,19.60
2023-03-17T12:11:41.517Z,18.20
2023-03-17T12:14:27.264Z,18.00
2023-03-17T12:17:21.511Z,18.10
2023-03-17T12:20:11.091Z,18.10
2023-03-17T12:23:12.366Z,17.90
2023-03-17T12:25:57.763Z,17.70
2023-03-17T12:28:42.563Z,17.50
2023-03-17T12:31:36.364Z,17.60
2023-03-17T12:34:25.136Z,17.20
2023-03-17T12:36:52.800Z,16.90
2023-03-17T12:39:28.115Z,17.20
2023-03-17T12:41:56.787Z,17.10
2023-03-17T12:45:01.428Z,17.20
2023-03-17T12:47:37.023Z,17.40
2023-03-17T12:50:31.587Z,17.00
2023-03-17T12:53:08.379Z,17.10
2023-03-17T12:55:38.492Z,17.40
2023-03-17T12:58:37.601Z,17.30
2023-03-17T13:01:23.156Z,17.30
2023-03-17T13:04:21.930Z,17.20
2023-03-17T13:07:01.246Z,17.40
2023-03-17T13:09:53.964Z,17.20
2023-03-17T13:12:57.578Z,17.20
2023-03-17T13:15:28.267Z,17.40
2023-03-17T13:18:19.066Z,17.40
2023-03-17T13:20:59.522Z,16.90
2023-03-17T13:23:44.090Z,17.00
2023-03-17T13:26:22.180Z,17.20
2023-03-17T13:28:50.983Z,17.30
2023-03-17T13:31:34.007Z,17.30
2023-03-17T13:34:19.411Z,17.40
2023-03-17T13:36:49.521Z,17.40
2023-03-17T13:39:34.289Z,17.30
2023-03-17T13:42:19.263Z,17.40
2023-03-17T13:45:16.197Z,17.40
2023-03-17T13:47:47.012Z,17.20
2023-03-17T13:50:23.487Z,17.10
2023-03-17T13:52:57.449Z,17.20
2023-03-17T13:55:24.115Z,17.30
2023-03-17T13:57:57.272Z,17.40
2023-03-17T14:00:27.780Z,17.40
2023-03-17T14:03:27.412Z,17.40
2023-03-17T14:05:55.256Z,17.40
2023-03-17T14:08:38.679Z,17.60
2023-03-17T14:11:36.562Z,17.80
2023-03-17T14:14:26.021Z,17.90
2023-03-17T14:17:20.302Z,17.70
2023-03-17T14:20:20.101Z,17.70
2023-03-17T14:22:56.563Z,17.70
2023-03-17T14:25:26.427Z,17.70
2023-03-17T14:27:56.925Z,17.80
2023-03-17T14:30:34.745Z,17.60
2023-03-17T14:33:22.672Z,17.40
2023-03-17T14:35:52.096Z,17.20
2023-03-17T14:38:28.137Z,17.10
2023-03-17T14:41:14.390Z,16.90
2023-03-17T14:43:42.894Z,16.70
2023-03-17T14:46:27.295Z,16.50
2023-03-17T14:49:24.964Z,16.40
2023-03-17T14:51:57.195Z,16.40
2023-03-17T14:54:33.004Z,16.40
2023-03-17T14:57:07.385Z,16.40
2023-03-17T14:59:42.214Z,16.50
2023-03-17T15:05:24.271Z,16.40
2023-03-17T15:07:51.775Z,16.30
2023-03-17T15:10:44.708Z,16.10
2023-03-17T15:13:14.703Z,16.10
2023-03-17T15:15:43.071Z,16.00
2023-03-17T15:18:15.350Z,15.90
2023-03-17T15:23:19.175Z,15.90
2023-03-17T15:25:56.713Z,16.00
2023-03-17T15:28:31.130Z,16.10
2023-03-17T15:31:11.759Z,16.10
2023-03-17T15:33:41.230Z,16.10
2023-03-17T15:36:29.277Z,16.10
2023-03-17T15:39:00.168Z,16.10
2023-03-17T15:41:26.924Z,16.10
2023-03-17T15:43:54.690Z,16.00
2023-03-17T15:46:27.597Z,16.00
2023-03-17T15:48:54.698Z,16.00
2023-03-17T15:51:22.056Z,15.90
2023-03-17T15:53:48.940Z,15.80
2023-03-17T15:56:21.472Z,15.60
2023-03-17T15:58:52.315Z,15.50
2023-03-17T16:01:19.849Z,15.50
2023-03-17T16:03:47.988Z,15.40
2023-03-17T16:06:22.094Z,15.30
2023-03-17T16:08:56.966Z,15.20
2023-03-17T16:11:28.276Z,15.10
2023-03-17T16:13:56.489Z,15.00
2023-03-17T16:16:45.641Z,14.90
2023-03-17T16:19:20.117Z,14.80
2023-03-17T16:21:47.347Z,14.60
2023-03-17T16:24:20.136Z,14.50
2023-03-17T16:26:47.084Z,14.50
2023-03-17T16:29:20.420Z,14.30
2023-03-17T16:31:49.482Z,14.10
2023-03-17T16:34:22.201Z,14.00
2023-03-17T16:36:50.540Z,13.90
2023-03-17T16:39:24.981Z,13.70
2023-03-17T16:41:53.438Z,13.60
2023-03-17T16:44:21.525Z,13.50
2023-03-17T16:46:49.112Z,13.40
2023-03-17T16:49:18.549Z,13.30
2023-03-17T16:51:48.173Z,13.20
2023-03-17T16:54:16.108Z,13.10
2023-03-17T16:56:43.021Z,13.00
2023-03-17T16:59:20.848Z,12.80
2023-03-17T17:01:47.729Z,12.70
2023-03-17T17:04:14.408Z,12.60
2023-03-17T17:06:41.075Z,12.60
2023-03-17T17:09:09.758Z,12.50
2023-03-17T17:11:39.462Z,12.40
2023-03-17T17:14:06.115Z,12.20
2023-03-17T17:16:36.354Z,12.10
2023-03-17T17:19:04.359Z,12.00
2023-03-17T17:21:31.949Z,11.90
2023-03-17T17:24:01.021Z,11.90
2023-03-17T17:26:30.789Z,11.80
2023-03-17T17:28:57.475Z,11.70
2023-03-17T17:31:24.127Z,11.60
2023-03-17T17:33:50.943Z,11.70
2023-03-17T17:36:17.895Z,11.60
2023-03-17T17:38:45.330Z,11.60
2023-03-17T17:41:12.969Z,11.40
2023-03-17T17:43:40.045Z,11.30
2023-03-17T17:46:18.776Z,11.20
2023-03-17T17:48:45.831Z,11.10
2023-03-17T17:51:12.768Z,11.10
2023-03-17T17:53:40.316Z,11.00
2023-03-17T17:56:07.540Z,10.80
2023-03-17T17:58:34.349Z,10.70
2023-03-17T18:01:01.695Z,10.60
2023-03-17T18:03:32.004Z,10.50
2023-03-17T18:05:59.631Z,10.50
2023-03-17T18:08:26.592Z,10.50
2023-03-17T18:10:53.291Z,10.50
2023-03-17T18:13:20.444Z,10.50
2023-03-17T18:15:47.151Z,10.40
2023-03-17T18:18:13.831Z,10.30
2023-03-17T18:20:40.648Z,10.20
2023-03-17T18:23:08.341Z,10.20
2023-03-17T18:25:35.924Z,10.20
2023-03-17T18:28:06.259Z,10.10
2023-03-17T18:30:35.004Z,10.10
2023-03-17T18:33:13.574Z,10.00
2023-03-17T18:35:41.080Z,9.90
2023-03-17T18:38:08.567Z,9.80
2023-03-17T18:40:36.070Z,9.80
2023-03-17T18:43:03.096Z,9.80
2023-03-17T18:45:29.871Z,9.90
2023-03-17T18:47:56.509Z,9.90
2023-03-17T18:50:23.258Z,9.80
2023-03-17T18:52:50.331Z,9.80
2023-03-17T18:55:17.178Z,9.90
2023-03-17T18:57:44.949Z,9.80
2023-03-17T19:00:14.083Z,9.80
2023-03-17T19:02:41.263Z,9.90
2023-03-17T19:05:08.605Z,10.00
2023-03-17T19:07:35.727Z,10.10
2023-03-17T19:10:02.481Z,10.10
2023-03-17T19:12:29.148Z,10.20
2023-03-17T19:14:59.231Z,10.20
2023-03-17T19:17:28.997Z,10.20
2023-03-17T19:19:58.629Z,10.20
2023-03-17T19:22:27.827Z,10.10
2023-03-17T19:24:54.595Z,10.10
2023-03-17T19:27:24.274Z,10.00
2023-03-17T19:29:51.052Z,10.00
2023-03-17T19:32:18.148Z,10.00
2023-03-17T19:34:47.561Z,10.10
2023-03-17T19:37:17.323Z,10.10
2023-03-17T19:39:47.080Z,10.10
2023-03-17T19:42:13.756Z,10.00
2023-03-17T19:44:40.872Z,10.00
2023-03-17T19:47:08.606Z,10.00
2023-03-17T19:49:37.377Z,9.90
2023-03-17T19:52:07.760Z,9.90
2023-03-17T19:54:37.727Z,9.80
2023-03-17T19:57:05.186Z,9.70
2023-03-17T19:59:31.866Z,9.70
2023-03-17T20:01:58.635Z,9.60
2023-03-17T20:04:25.830Z,9.50
2023-03-17T20:06:57.472Z,9.50
2023-03-17T20:09:27.720Z,9.50
2023-03-17T20:11:58.409Z,9.50
2023-03-17T20:14:25.551Z,9.40
2023-03-17T20:16:53.664Z,9.40
2023-03-17T20:19:23.814Z,9.40
2023-03-17T20:21:51.589Z,9.40
2023-03-17T20:24:18.376Z,9.40
2023-03-17T20:26:45.479Z,9.40
2023-03-17T20:29:16.119Z,9.30
2023-03-17T20:31:42.917Z,9.30
2023-03-17T20:34:10.365Z,9.20
2023-03-17T20:36:37.750Z,9.20
2023-03-17T20:39:05.732Z,9.20
2023-03-17T20:41:34.506Z,9.20
2023-03-17T20:44:01.636Z,9.20
2023-03-17T20:46:28.378Z,9.20
2023-03-17T20:49:07.653Z,9.10
2023-03-17T20:51:34.448Z,9.10
2023-03-17T20:54:02.409Z,9.10
2023-03-17T20:56:33.292Z,9.00
2023-03-17T20:59:05.074Z,9.00
2023-03-17T21:01:40.124Z,9.00
2023-03-17T21:04:12.355Z,9.00
2023-03-17T21:06:39.669Z,9.00
2023-03-17T21:09:06.472Z,9.10
2023-03-17T21:11:33.550Z,9.00
2023-03-17T21:14:02.614Z,9.00
2023-03-17T21:16:30.351Z,9.00
2023-03-17T21:18:57.247Z,9.10
2023-03-17T21:21:25.047Z,9.10
2023-03-17T21:23:51.990Z,9.10
2023-03-17T21:26:19.423Z,9.00
2023-03-17T21:28:46.644Z,8.90
2023-03-17T21:31:15.139Z,8.90
2023-03-17T21:33:45.247Z,8.80
2023-03-17T21:36:12.087Z,8.70
2023-03-17T21:38:39.133Z,8.70
2023-03-17T21:41:22.748Z,8.70
2023-03-17T21:43:50.458Z,8.70
2023-03-17T21:46:17.283Z,8.70
2023-03-17T21:48:44.216Z,8.80
2023-03-17T21:51:20.809Z,8.80
2023-03-17T21:53:47.955Z,8.90
2023-03-17T21:56:14.742Z,8.90
2023-03-17T21:58:43.646Z,8.90
2023-03-17T22:01:11.477Z,8.90
2023-03-17T22:03:39.861Z,8.90
2023-03-17T22:06:07.102Z,8.90
2023-03-17T22:08:34.525Z,8.90
2023-03-17T22:11:12.068Z,9.00
2023-03-17T22:13:42.372Z,9.00
2023-03-17T22:16:13.145Z,8.90
2023-03-17T22:18:40.576Z,9.00
2023-03-17T22:21:08.312Z,8.90
2023-03-17T22:23:41.003Z,8.90
2023-03-17T22:26:19.305Z,9.00
2023-03-17T22:28:48.182Z,8.90
2023-03-17T22:31:23.141Z,8.90
2023-03-17T22:33:53.262Z,8.90
2023-03-17T22:36:19.998Z,8.80
2023-03-17T22:38:46.971Z,8.80
2023-03-17T22:41:16.534Z,8.80
2023-03-17T22:43:44.046Z,8.80
2023-03-17T22:46:11.502Z,8.80
2023-03-17T22:48:39.820Z,8.80
2023-03-17T22:51:08.706Z,8.80
2023-03-17T22:53:39.556Z,8.80
2023-03-17T22:56:07.048Z,8.80
2023-03-17T22:58:34.530Z,8.80
2023-03-17T23:01:06.375Z,8.80
2023-03-17T23:03:33.987Z,8.80
2023-03-17T23:06:03.882Z,8.80
2023-03-17T23:08:34.960Z,8.70
2023-03-17T23:11:07.054Z,8.60
2023-03-17T23:13:35.189Z,8.60
2023-03-17T23:16:02.540Z,8.60
2023-03-17T23:18:29.247Z,8.60
2023-03-17T23:20:56.200Z,8.50
2023-03-17T23:23:23.014Z,8.50
2023-03-17T23:25:49.683Z,8.50
2023-03-17T23:28:20.038Z,8.60
2023-03-17T23:30:49.698Z,8.50
2023-03-17T23:33:17.550Z,8.50
2023-03-17T23:35:49.720Z,8.50
2023-03-17T23:38:21.330Z,8.50
2023-03-17T23:40:49.221Z,8.50
2023-03-17T23:43:19.525Z,8.60
2023-03-17T23:45:46.477Z,8.60
2023-03-17T23:48:13.239Z,8.60
2023-03-17T23:50:41.471Z,8.70
2023-03-17T23:53:11.598Z,8.70
2023-03-17T23:55:38.765Z,8.70
2023-03-17T23:58:08.593Z,8.70
